Time;durP1;ratioP1;P1;durP2;ratioP2;P2;SDS_P1;SDS_P2;PMS_P1;PMS_P2;Temp;Humidity;BMP_temperature;BMP_pressure;BME280_temperature;BME280_humidity;BME280_pressure;Samples;Min_cycle;Max_cycle;Signal;HPM_P1;HPM_P2
2021/12/20 00:00:21;;;;;;;3.22;1.60;;;;;;;2.51;87.20;98649.41;5014503;28;20409;-62
2021/12/20 00:03:07;;;;;;;2.88;1.60;;;;;;;2.52;86.25;98647.66;5013263;28;20045;-60
2021/12/20 00:05:52;;;;;;;4.30;1.98;;;;;;;2.57;87.16;98644.00;5004614;28;20056;-61
2021/12/20 00:08:38;;;;;;;3.08;1.60;;;;;;;2.52;86.34;98653.69;5013260;28;20052;-61
2021/12/20 00:11:24;;;;;;;3.20;1.90;;;;;;;2.44;86.22;98640.19;5013856;28;20077;-62
2021/12/20 00:14:10;;;;;;;3.20;1.30;;;;;;;2.56;88.72;98631.94;5019119;28;20053;-61
2021/12/20 00:16:56;;;;;;;3.13;1.75;;;;;;;2.58;87.75;98645.69;5005290;28;20053;-61
2021/12/20 00:19:41;;;;;;;2.42;1.38;;;;;;;2.30;89.32;98654.44;5018888;28;20049;-61
2021/12/20 00:22:27;;;;;;;3.33;1.52;;;;;;;2.55;90.32;98650.97;5013442;28;20053;-61
2021/12/20 00:25:13;;;;;;;2.88;1.35;;;;;;;2.44;90.54;98638.44;5014383;28;20045;-61
2021/12/20 00:28:00;;;;;;;4.88;1.90;;;;;;;2.45;91.16;98668.56;5014170;28;20053;-63
2021/12/20 00:30:47;;;;;;;3.42;1.55;;;;;;;2.35;92.29;98656.88;5020036;28;20543;-61
2021/12/20 00:33:33;;;;;;;2.33;1.30;;;;;;;2.54;93.30;98680.34;5014247;28;20057;-63
2021/12/20 00:36:22;;;;;;;2.20;1.35;;;;;;;2.20;94.46;98689.31;5012585;28;20056;-61
2021/12/20 00:42:12;;;;;;;2.30;1.30;;;;;;;2.04;98.40;98775.13;5013853;28;20049;-61
2021/12/20 00:44:57;;;;;;;2.97;1.73;;;;;;;1.70;99.81;98778.81;5012756;28;20065;-61
2021/12/20 00:47:43;;;;;;;1.98;1.00;;;;;;;1.04;100.00;98769.59;5012551;28;20404;-60
2021/12/20 00:50:29;;;;;;;1.77;0.80;;;;;;;0.84;100.00;98782.19;5013657;28;20057;-61
2021/12/20 00:53:18;;;;;;;1.60;0.57;;;;;;;0.74;100.00;98780.75;5013457;28;20508;-61
2021/12/20 00:56:04;;;;;;;1.65;0.45;;;;;;;0.62;100.00;98758.72;5013389;28;20049;-60
2021/12/20 00:58:50;;;;;;;0.95;0.40;;;;;;;0.92;100.00;98768.22;5017804;28;20077;-60
2021/12/20 01:01:36;;;;;;;0.35;0.30;;;;;;;0.95;100.00;98775.88;5012691;28;20057;-60
2021/12/20 01:04:21;;;;;;;1.15;0.52;;;;;;;0.94;100.00;98776.78;5006180;28;20053;-60
2021/12/20 01:07:07;;;;;;;0.85;0.35;;;;;;;1.23;100.00;98772.47;5023903;28;20052;-61
2021/12/20 01:09:57;;;;;;;1.27;0.50;;;;;;;1.10;100.00;98767.69;5013860;28;20511;-60
2021/12/20 01:12:48;;;;;;;0.50;0.30;;;;;;;1.26;100.00;98763.81;5014140;28;20061;-61
2021/12/20 01:15:40;;;;;;;0.57;0.30;;;;;;;1.10;100.00;98762.53;5013857;28;20884;-61
2021/12/20 01:18:26;;;;;;;0.50;0.20;;;;;;;1.21;100.00;98764.78;5014118;28;20053;-60
2021/12/20 01:21:13;;;;;;;0.88;0.22;;;;;;;1.21;100.00;98776.84;5019763;28;20069;-61
2021/12/20 01:23:58;;;;;;;0.35;0.20;;;;;;;1.49;100.00;98773.41;5013174;28;20053;-61
2021/12/20 01:26:44;;;;;;;0.63;0.20;;;;;;;1.27;100.00;98774.09;5013065;28;20053;-62
2021/12/20 01:29:30;;;;;;;1.13;0.25;;;;;;;1.30;100.00;98773.16;5013152;28;20061;-61
2021/12/20 01:32:16;;;;;;;0.20;0.10;;;;;;;1.50;100.00;98780.31;5013187;28;20515;-62
2021/12/20 01:35:03;;;;;;;0.00;0.00;;;;;;;1.44;100.00;98783.91;4998339;28;20100;-61
2021/12/20 01:37:50;;;;;;;0.55;0.17;;;;;;;1.51;100.00;98796.63;5011842;28;20068;-61
2021/12/20 01:40:37;;;;;;;0.50;0.20;;;;;;;1.43;100.00;98787.38;5013528;28;20060;-61
2021/12/20 01:43:23;;;;;;;0.75;0.10;;;;;;;1.45;100.00;98795.91;5013465;28;20061;-60
2021/12/20 01:46:09;;;;;;;0.60;0.20;;;;;;;1.52;100.00;98775.91;5013937;28;20053;-62
2021/12/20 01:48:55;;;;;;;0.17;0.10;;;;;;;1.39;100.00;98779.78;5013197;28;20061;-61
2021/12/20 01:54:44;;;;;;;2.08;0.20;;;;;;;1.20;100.00;98777.75;5012633;28;20061;-61
2021/12/20 01:57:29;;;;;;;0.47;0.22;;;;;;;1.13;100.00;98766.75;4993407;28;20053;-62
2021/12/20 02:00:23;;;;;;;0.50;0.20;;;;;;;1.21;100.00;98782.00;5006103;28;20402;-61
2021/12/20 02:03:10;;;;;;;0.57;0.20;;;;;;;1.33;100.00;98779.06;4993329;28;20401;-61
2021/12/20 02:05:58;;;;;;;1.73;0.20;;;;;;;1.25;100.00;98782.75;4993358;28;20053;-61
2021/12/20 02:08:44;;;;;;;0.52;0.15;;;;;;;1.18;100.00;98790.69;4998881;28;20065;-60
2021/12/20 02:11:30;;;;;;;0.80;0.30;;;;;;;1.22;100.00;98794.03;5006344;28;20062;-62
2021/12/20 02:14:19;;;;;;;1.27;0.22;;;;;;;1.40;100.00;98787.47;5009033;28;20077;-62
2021/12/20 02:17:05;;;;;;;1.52;0.30;;;;;;;1.35;100.00;98797.09;5016456;28;20053;-60
2021/12/20 02:19:51;;;;;;;2.30;0.30;;;;;;;1.39;100.00;98792.69;5016251;28;20056;-61
2021/12/20 02:22:38;;;;;;;1.92;0.30;;;;;;;1.30;100.00;98804.13;5016317;28;20057;-61
2021/12/20 02:25:26;;;;;;;4.63;0.40;;;;;;;1.26;100.00;98810.28;5016079;28;20081;-62
2021/12/20 02:28:14;;;;;;;1.75;0.10;;;;;;;1.24;100.00;98802.56;5015418;28;20069;-60
2021/12/20 02:37:27;;;;;;;0.80;0.30;;;;;;;1.07;100.00;98809.09;5016151;28;20061;-61
2021/12/20 02:40:11;;;;;;;0.77;0.38;;;;;;;1.12;100.00;98808.94;5015746;28;20049;-60
2021/12/20 02:42:56;;;;;;;1.55;0.40;;;;;;;1.11;100.00;98799.50;5029128;28;20069;-62
2021/12/20 02:45:43;;;;;;;0.30;0.10;;;;;;;1.20;100.00;98800.97;5014968;28;20500;-61
2021/12/20 02:48:29;;;;;;;0.73;0.28;;;;;;;1.14;100.00;98811.47;5016081;28;20053;-61
2021/12/20 02:51:15;;;;;;;0.77;0.25;;;;;;;1.27;100.00;98802.50;5016164;28;20057;-61
2021/12/20 02:54:03;;;;;;;1.45;0.40;;;;;;;1.33;100.00;98815.22;5015830;28;20503;-61
2021/12/20 02:56:50;;;;;;;0.85;0.40;;;;;;;1.29;100.00;98817.94;5021655;28;20064;-60
2021/12/20 02:59:36;;;;;;;0.90;0.50;;;;;;;1.30;100.00;98817.03;5016049;28;20393;-60
2021/12/20 03:02:22;;;;;;;0.50;0.20;;;;;;;1.26;100.00;98831.75;5015732;28;20045;-61
2021/12/20 03:05:10;;;;;;;1.30;0.57;;;;;;;1.14;100.00;98820.06;5021581;28;20533;-61
2021/12/20 03:07:57;;;;;;;0.40;0.10;;;;;;;1.40;100.00;98836.53;5015595;28;20053;-60
2021/12/20 03:10:42;;;;;;;0.75;0.40;;;;;;;1.44;100.00;98843.28;5015489;28;20053;-60
2021/12/20 03:13:28;;;;;;;1.02;0.32;;;;;;;1.29;100.00;98825.69;5015101;28;20060;-61
2021/12/20 03:16:14;;;;;;;0.32;0.20;;;;;;;1.40;100.00;98818.47;5014056;28;20072;-61
2021/12/20 03:19:02;;;;;;;0.52;0.30;;;;;;;1.30;100.00;98833.38;5015274;28;20397;-61
2021/12/20 03:21:49;;;;;;;1.65;0.30;;;;;;;1.26;100.00;98838.69;5015528;28;20069;-61
2021/12/20 03:24:35;;;;;;;1.25;0.28;;;;;;;1.18;100.00;98841.47;5020761;28;20057;-61
2021/12/20 03:27:21;;;;;;;0.82;0.40;;;;;;;1.14;100.00;98838.16;5015372;28;20076;-61
2021/12/20 03:30:10;;;;;;;0.65;0.30;;;;;;;1.15;100.00;98842.41;5015219;28;20183;-62
2021/12/20 03:32:56;;;;;;;0.43;0.20;;;;;;;1.09;98.62;98837.44;5014466;28;20061;-61
2021/12/20 03:35:42;;;;;;;0.52;0.20;;;;;;;1.07;97.41;98850.38;5015291;28;20049;-60
2021/12/20 03:38:27;;;;;;;2.25;0.40;;;;;;;1.39;99.24;98845.16;5016794;28;20056;-61
2021/12/20 03:41:14;;;;;;;0.85;0.40;;;;;;;1.32;91.89;98844.50;5017191;28;20049;-60
2021/12/20 03:44:00;;;;;;;1.65;0.30;;;;;;;1.23;92.04;98855.09;5029523;28;20053;-61
2021/12/20 03:46:45;;;;;;;4.68;0.65;;;;;;;1.22;92.04;98859.38;5015462;28;20061;-60
2021/12/20 03:49:31;;;;;;;0.95;0.43;;;;;;;1.44;93.00;98874.28;5014985;28;20405;-60
2021/12/20 03:52:17;;;;;;;1.00;0.20;;;;;;;1.48;92.07;98860.38;5013743;28;20053;-61
2021/12/20 03:55:03;;;;;;;2.20;0.50;;;;;;;1.16;90.78;98864.72;5020861;28;20057;-61
2021/12/20 03:57:50;;;;;;;0.25;0.13;;;;;;;1.49;88.90;98861.22;5033539;28;20065;-61
2021/12/20 04:00:36;;;;;;;1.13;0.50;;;;;;;1.32;89.93;98877.22;5011732;28;20065;-62
2021/12/20 04:03:22;;;;;;;0.40;0.20;;;;;;;1.13;89.16;98862.25;5014105;28;20064;-61
2021/12/20 04:06:10;;;;;;;1.23;0.47;;;;;;;1.06;88.13;98853.81;5014225;28;20053;-61
2021/12/20 04:08:56;;;;;;;1.73;0.40;;;;;;;1.15;88.58;98872.53;5014400;28;20072;-61
2021/12/20 04:11:42;;;;;;;1.20;0.25;;;;;;;1.00;86.92;98866.06;5013315;28;20504;-60
2021/12/20 04:14:28;;;;;;;1.35;0.57;;;;;;;1.02;87.90;98867.72;5014211;28;20524;-61
2021/12/20 04:17:14;;;;;;;0.75;0.35;;;;;;;1.18;90.20;98872.44;5019279;28;20370;-60
2021/12/20 04:19:59;;;;;;;0.85;0.30;;;;;;;1.18;87.07;98873.28;5026968;28;20061;-62
2021/12/20 04:22:45;;;;;;;0.52;0.28;;;;;;;0.89;88.28;98874.94;5014104;28;20053;-62
2021/12/20 04:25:31;;;;;;;1.33;0.20;;;;;;;0.90;90.14;98868.06;5014227;28;20045;-61
2021/12/20 04:28:16;;;;;;;1.60;0.35;;;;;;;0.75;90.11;98864.16;5005560;28;20076;-61
2021/12/20 04:31:03;;;;;;;1.08;0.43;;;;;;;1.00;90.36;98860.91;5014000;28;20496;-61
2021/12/20 04:33:48;;;;;;;0.90;0.30;;;;;;;1.04;88.27;98870.25;5019988;28;20053;-60
2021/12/20 04:36:34;;;;;;;1.73;0.50;;;;;;;1.07;88.13;98859.84;5013064;28;20065;-60
2021/12/20 04:39:24;;;;;;;1.83;0.50;;;;;;;0.96;86.86;98867.88;5010489;28;20514;-60
2021/12/20 04:42:11;;;;;;;2.25;0.40;;;;;;;0.93;86.51;98893.78;5011682;28;20072;-62
2021/12/20 04:44:56;;;;;;;1.58;0.70;;;;;;;0.92;87.01;98903.25;5015392;28;20076;-61
2021/12/20 04:47:43;;;;;;;2.05;0.63;;;;;;;1.22;89.27;98897.28;5030940;28;20453;-61
2021/12/20 04:50:29;;;;;;;0.80;0.40;;;;;;;0.83;86.85;98880.28;5018539;28;20061;-62
2021/12/20 04:53:15;;;;;;;1.38;0.50;;;;;;;0.89;88.81;98903.31;5043809;28;20049;-62
2021/12/20 04:56:01;;;;;;;2.03;0.60;;;;;;;1.08;92.10;98910.56;5032357;28;20044;-61
2021/12/20 04:58:47;;;;;;;0.35;0.28;;;;;;;1.03;92.52;98913.25;5025691;28;20053;-62
2021/12/20 05:01:33;;;;;;;1.58;0.50;;;;;;;0.80;92.99;98904.41;5023372;28;20053;-61
2021/12/20 05:04:19;;;;;;;0.80;0.40;;;;;;;0.88;95.25;98891.31;5016096;28;20060;-67
2021/12/20 05:07:04;;;;;;;1.15;0.40;;;;;;;0.78;95.38;98907.91;5032291;28;20064;-64
2021/12/20 05:09:51;;;;;;;0.63;0.40;;;;;;;0.63;95.37;98920.31;5045183;28;20064;-65
2021/12/20 05:12:37;;;;;;;2.50;0.50;;;;;;;0.80;95.63;98921.63;5031785;28;20058;-65
2021/12/20 05:15:24;;;;;;;1.33;0.70;;;;;;;0.60;95.64;98930.72;5012711;28;20065;-68
2021/12/20 05:18:10;;;;;;;2.72;0.50;;;;;;;0.50;94.88;98935.25;5012086;28;20049;-65
2021/12/20 05:20:56;;;;;;;2.40;0.50;;;;;;;0.44;95.10;98936.22;5025138;28;20057;-63
2021/12/20 05:23:41;;;;;;;1.85;0.50;;;;;;;0.36;93.31;98938.16;5012691;28;20049;-64
2021/12/20 05:26:27;;;;;;;2.08;0.40;;;;;;;0.41;92.57;98941.47;5012651;28;20044;-66
2021/12/20 05:29:13;;;;;;;0.85;0.30;;;;;;;0.44;93.05;98948.31;5032423;28;20056;-69
2021/12/20 05:32:02;;;;;;;1.50;0.40;;;;;;;0.29;91.99;98945.19;5032854;28;20060;-69
2021/12/20 05:34:48;;;;;;;2.17;0.68;;;;;;;0.23;92.59;98943.59;5023961;28;20526;-70
2021/12/20 05:37:34;;;;;;;1.60;0.60;;;;;;;0.28;91.26;98951.22;5031889;28;20056;-68
2021/12/20 05:40:20;;;;;;;2.40;0.63;;;;;;;0.54;90.50;98957.50;5031251;28;20064;-68
2021/12/20 05:43:06;;;;;;;0.30;0.30;;;;;;;0.29;88.41;98955.50;5030447;28;20120;-70
2021/12/20 05:45:52;;;;;;;1.65;0.47;;;;;;;0.26;89.01;98965.03;5032698;28;20048;-69
2021/12/20 05:48:37;;;;;;;1.23;0.40;;;;;;;0.30;88.63;98974.38;5035123;28;20053;-70
2021/12/20 05:51:23;;;;;;;0.68;0.30;;;;;;;0.11;87.75;98965.34;5037232;28;20398;-70
2021/12/20 05:54:09;;;;;;;3.55;0.80;;;;;;;0.13;88.16;98967.91;5036535;28;20053;-69
2021/12/20 05:56:54;;;;;;;0.57;0.30;;;;;;;0.40;87.82;98977.59;5036204;28;20061;-68
2021/12/20 05:59:41;;;;;;;5.18;0.70;;;;;;;0.20;86.72;98974.59;5036924;28;20060;-68
2021/12/20 06:02:27;;;;;;;0.35;0.20;;;;;;;0.10;86.34;98983.41;5050381;28;20053;-70
2021/12/20 06:05:13;;;;;;;0.80;0.40;;;;;;;0.21;86.57;98975.47;5038030;28;20408;-69
2021/12/20 06:07:59;;;;;;;0.68;0.30;;;;;;;0.21;86.83;98975.47;5036494;28;20060;-69
2021/12/20 06:10:44;;;;;;;1.65;0.63;;;;;;;0.23;85.97;98982.25;5036275;28;20068;-69
2021/12/20 06:13:30;;;;;;;0.50;0.32;;;;;;;0.19;86.39;98979.78;5029857;28;20064;-70
2021/12/20 06:16:17;;;;;;;0.70;0.40;;;;;;;0.09;85.74;98982.59;5016859;28;20527;-68
2021/12/20 06:19:04;;;;;;;1.38;0.50;;;;;;;0.07;85.55;98991.19;5016653;28;20057;-68
2021/12/20 06:21:50;;;;;;;1.02;0.43;;;;;;;0.05;86.56;98998.97;5015939;28;20052;-67
2021/12/20 06:24:38;;;;;;;2.20;0.47;;;;;;;0.20;86.29;98996.94;5016239;28;20045;-66
2021/12/20 06:27:23;;;;;;;0.90;0.47;;;;;;;0.22;85.56;98992.59;5029187;28;20057;-70
2021/12/20 06:30:11;;;;;;;2.78;0.40;;;;;;;0.22;86.54;99010.66;5016064;28;20053;-68
2021/12/20 06:32:57;;;;;;;3.25;0.57;;;;;;;0.22;85.73;99010.66;5015812;28;20076;-67
2021/12/20 06:35:45;;;;;;;3.75;0.70;;;;;;;0.19;86.28;99018.44;5014608;28;20052;-63
2021/12/20 06:38:32;;;;;;;3.38;0.70;;;;;;;0.16;85.68;99010.78;5015430;28;20053;-66
2021/12/20 06:41:18;;;;;;;5.90;0.70;;;;;;;0.13;85.33;98983.38;5015924;28;20049;-62
2021/12/20 06:44:04;;;;;;;2.05;0.70;;;;;;;0.30;85.50;99026.78;5015883;28;20052;-68
2021/12/20 06:46:51;;;;;;;5.07;0.90;;;;;;;0.31;84.90;99022.50;5014627;28;20520;-66
2021/12/20 06:49:37;;;;;;;2.67;0.57;;;;;;;0.71;86.49;99031.03;5014674;28;20053;-62
2021/12/20 06:52:23;;;;;;;5.30;0.82;;;;;;;0.95;84.02;99011.53;5014480;28;20049;-62
2021/12/20 06:55:09;;;;;;;2.60;0.50;;;;;;;0.89;82.83;99013.41;5013641;28;20488;-60
2021/12/20 06:57:55;;;;;;;2.53;1.00;;;;;;;1.26;80.80;99029.72;5015268;28;20069;-63
2021/12/20 07:00:41;;;;;;;4.32;0.68;;;;;;;1.28;79.64;99030.50;5019142;28;20049;-62
2021/12/20 07:03:26;;;;;;;1.02;0.60;;;;;;;1.17;80.81;99046.28;5015213;28;20048;-60
2021/12/20 07:06:12;;;;;;;1.67;0.80;;;;;;;1.51;80.16;99045.41;5015594;28;20409;-61
2021/12/20 07:08:59;;;;;;;2.80;1.00;;;;;;;2.25;81.24;99033.88;5033089;28;20052;-61
2021/12/20 07:11:44;;;;;;;4.68;1.10;;;;;;;1.98;77.65;99044.09;5025034;28;20072;-60
2021/12/20 07:14:30;;;;;;;2.83;0.88;;;;;;;1.46;81.22;99042.94;5009151;28;20052;-65
2021/12/20 07:17:17;;;;;;;2.35;0.70;;;;;;;1.32;81.93;99039.88;4995990;28;20049;-57
2021/12/20 07:20:05;;;;;;;3.17;1.17;;;;;;;0.98;81.42;99033.81;5000451;28;20057;-62
2021/12/20 07:22:51;;;;;;;3.35;0.65;;;;;;;0.75;81.29;99034.41;5012913;28;20393;-61
2021/12/20 07:25:37;;;;;;;2.85;0.90;;;;;;;0.99;81.16;99045.84;5037548;28;20064;-61
2021/12/20 07:28:23;;;;;;;2.92;0.70;;;;;;;1.12;79.79;99056.72;5023072;28;20503;-61
2021/12/20 07:31:11;;;;;;;3.58;0.80;;;;;;;0.77;80.67;99048.94;5022057;28;20056;-63
2021/12/20 07:33:57;;;;;;;3.17;0.80;;;;;;;1.28;83.36;99053.72;5025922;28;20480;-61
2021/12/20 07:36:43;;;;;;;2.78;0.95;;;;;;;0.97;78.56;99063.94;5025448;28;20049;-61
2021/12/20 07:39:29;;;;;;;0.90;0.43;;;;;;;0.93;79.06;99056.31;5022949;28;20061;-61
2021/12/20 07:42:15;;;;;;;4.45;0.90;;;;;;;0.86;78.78;99038.38;5020803;28;20053;-61
2021/12/20 07:45:02;;;;;;;3.20;0.93;;;;;;;0.78;79.22;99060.97;5012838;28;20056;-60
2021/12/20 07:47:49;;;;;;;1.73;0.50;;;;;;;1.01;77.84;99057.00;5026832;28;20050;-61
2021/12/20 07:50:35;;;;;;;1.00;0.50;;;;;;;0.90;78.58;99057.22;5028942;28;20052;-60
2021/12/20 07:53:21;;;;;;;3.20;0.73;;;;;;;1.06;80.50;99054.28;5033810;28;20049;-59
2021/12/20 07:56:07;;;;;;;1.30;0.60;;;;;;;1.52;80.06;99061.75;5013917;28;20048;-60
2021/12/20 07:58:53;;;;;;;1.85;0.52;;;;;;;1.08;77.79;99063.69;5007050;28;20496;-59
2021/12/20 08:01:39;;;;;;;4.20;0.82;;;;;;;1.04;82.75;99074.13;5022589;28;20049;-59
2021/12/20 08:04:25;;;;;;;1.50;0.60;;;;;;;1.04;79.82;99051.75;5013678;28;20057;-59
2021/12/20 08:07:11;;;;;;;4.15;1.60;;;;;;;0.72;78.51;99063.66;4999829;28;20065;-60
2021/12/20 08:10:08;;;;;;;2.13;0.70;;;;;;;0.96;82.89;99069.97;5015516;28;20057;-49
2021/12/20 08:12:54;;;;;;;4.70;1.38;;;;;;;3.29;76.68;99093.59;5015143;28;20053;-48
2021/12/20 08:15:40;;;;;;;76.00;36.47;;;;;;;4.03;85.15;99087.59;5011258;28;20045;-48
2021/12/20 08:18:26;;;;;;;10.23;5.05;;;;;;;3.43;75.69;99075.00;4999131;28;20054;-46
2021/12/20 08:21:14;;;;;;;4.85;2.08;;;;;;;2.17;72.96;99075.44;5016160;28;20537;-57
2021/12/20 08:23:59;;;;;;;1.73;0.90;;;;;;;1.23;74.85;99088.28;4986268;28;20054;-58
2021/12/20 08:26:47;;;;;;;2.97;1.08;;;;;;;1.48;75.96;99091.97;5008017;28;20061;-57
2021/12/20 08:29:33;;;;;;;2.22;0.68;;;;;;;1.32;75.72;99105.25;5007711;28;20050;-59
2021/12/20 08:32:18;;;;;;;2.70;0.60;;;;;;;1.50;75.53;99121.19;5009836;28;20065;-59
2021/12/20 08:35:07;;;;;;;1.83;0.60;;;;;;;1.41;75.05;99111.06;4994070;28;20065;-58
2021/12/20 08:37:53;;;;;;;1.50;0.55;;;;;;;1.21;75.21;99126.16;4994030;28;20556;-56
2021/12/20 08:40:40;;;;;;;1.35;0.68;;;;;;;1.37;74.75;99135.28;4998465;28;20046;-57
2021/12/20 08:43:29;;;;;;;1.25;0.40;;;;;;;1.30;75.75;99135.44;4998952;28;20049;-58
2021/12/20 08:46:18;;;;;;;1.02;0.50;;;;;;;1.37;75.01;99137.88;4986502;28;20405;-58
2021/12/20 08:49:06;;;;;;;3.20;0.60;;;;;;;1.15;76.19;99133.22;4998874;28;20061;-56
2021/12/20 08:51:54;;;;;;;1.48;0.55;;;;;;;1.17;76.18;99144.34;4984676;28;20061;-58
2021/12/20 08:54:40;;;;;;;1.85;0.55;;;;;;;1.08;76.29;99154.00;4993554;28;20049;-58
2021/12/20 08:57:26;;;;;;;3.72;1.40;;;;;;;1.51;74.63;99145.25;4997635;28;20078;-57
2021/12/20 09:00:17;;;;;;;1.67;0.55;;;;;;;1.54;74.43;99153.78;4997402;28;20065;-54
2021/12/20 09:03:04;;;;;;;3.03;0.70;;;;;;;1.62;73.23;99148.41;5010201;28;20073;-57
2021/12/20 09:05:50;;;;;;;1.60;0.60;;;;;;;1.39;74.85;99156.75;5010807;28;20062;-58
2021/12/20 09:08:36;;;;;;;3.10;0.70;;;;;;;1.15;75.17;99151.28;4996185;28;20057;-57
2021/12/20 09:11:23;;;;;;;2.50;0.63;;;;;;;1.25;74.31;99162.25;4997907;28;20505;-57
2021/12/20 09:14:10;;;;;;;1.17;0.68;;;;;;;1.70;74.37;99162.00;5021190;28;20057;-58
2021/12/20 09:16:56;;;;;;;1.08;0.40;;;;;;;1.74;72.43;99139.50;5014900;28;20053;-59
2021/12/20 09:19:42;;;;;;;4.15;0.43;;;;;;;1.27;73.37;99153.59;5014318;28;20433;-58
2021/12/20 09:22:30;;;;;;;2.20;0.43;;;;;;;1.46;73.46;99160.88;5014075;28;20053;-57
2021/12/20 09:25:22;;;;;;;3.88;0.93;;;;;;;1.55;72.72;99168.38;5020040;28;20056;-60
2021/12/20 09:28:10;;;;;;;1.02;0.35;;;;;;;1.60;70.98;99153.63;5015498;28;20096;-57
2021/12/20 09:30:55;;;;;;;1.00;0.40;;;;;;;1.48;71.81;99159.94;4993737;28;20065;-56
2021/12/20 09:33:41;;;;;;;2.25;0.55;;;;;;;1.53;71.47;99157.25;5022669;28;20055;-56
2021/12/20 09:36:33;;;;;;;1.58;0.50;;;;;;;1.42;72.15;99161.84;5015722;28;20057;-56
2021/12/20 09:39:20;;;;;;;0.35;0.30;;;;;;;1.42;71.99;99159.25;5015569;28;20092;-56
2021/12/20 09:42:07;;;;;;;2.83;0.73;;;;;;;1.64;71.23;99169.03;5018539;28;20401;-56
2021/12/20 09:44:54;;;;;;;2.63;0.55;;;;;;;1.79;70.26;99171.25;5012822;28;20077;-58
2021/12/20 09:47:40;;;;;;;0.82;0.47;;;;;;;1.40;71.09;99151.56;5013429;28;20053;-57
2021/12/20 09:50:27;;;;;;;1.73;0.50;;;;;;;1.79;70.86;99165.22;5013577;28;20057;-59
2021/12/20 09:53:15;;;;;;;0.73;0.30;;;;;;;1.39;70.55;99169.69;5012475;28;20056;-57
2021/12/20 09:56:01;;;;;;;3.25;1.90;;;;;;;1.45;70.79;99164.34;5012214;28;20064;-58
2021/12/20 09:58:48;;;;;;;1.13;0.32;;;;;;;1.56;71.28;99161.50;5012462;28;20053;-58
2021/12/20 10:01:35;;;;;;;1.17;0.30;;;;;;;2.56;69.12;99164.84;5013624;28;20053;-57
2021/12/20 10:04:22;;;;;;;0.85;0.47;;;;;;;2.72;66.50;99138.53;5013334;28;20053;-56
2021/12/20 10:07:09;;;;;;;2.13;0.50;;;;;;;3.40;63.12;99155.41;5018235;28;20061;-57
2021/12/20 10:09:55;;;;;;;1.88;0.40;;;;;;;3.82;62.22;99161.78;5017686;28;20053;-59
2021/12/20 10:12:50;;;;;;;1.48;0.47;;;;;;;3.39;62.40;99133.00;5011950;28;20057;-58
2021/12/20 10:15:39;;;;;;;3.03;0.35;;;;;;;3.69;62.43;99151.00;5012580;28;20061;-58
2021/12/20 10:18:28;;;;;;;1.33;0.38;;;;;;;5.01;59.29;99150.56;5012864;28;20473;-57
2021/12/20 10:21:15;;;;;;;1.50;0.50;;;;;;;4.83;58.11;99151.28;5032158;28;20057;-57
2021/12/20 10:24:01;;;;;;;0.63;0.30;;;;;;;4.77;58.34;99153.22;5013411;28;20053;-55
2021/12/20 10:26:48;;;;;;;1.92;0.40;;;;;;;5.81;55.68;99143.91;5012654;28;20057;-59
2021/12/20 10:29:38;;;;;;;2.60;0.55;;;;;;;5.99;54.17;99137.91;5013315;28;20049;-58
2021/12/20 10:32:53;;;;;;;2.00;0.47;;;;;;;5.41;55.19;99149.88;5013323;28;20053;-58
2021/12/20 10:35:42;;;;;;;3.20;0.40;;;;;;;5.99;55.06;99150.91;5009290;28;20080;-58
2021/12/20 10:38:38;;;;;;;1.83;0.52;;;;;;;5.83;53.42;99140.34;5016446;28;20056;-57
2021/12/20 10:41:35;;;;;;;0.43;0.30;;;;;;;7.81;50.44;99153.81;5016472;28;20053;-57
2021/12/20 10:44:24;;;;;;;2.33;0.88;;;;;;;7.25;48.92;99148.75;5029174;28;20057;-58
2021/12/20 10:47:25;;;;;;;1.58;0.30;;;;;;;6.41;52.32;99143.91;5028974;28;20068;-57
2021/12/20 10:50:26;;;;;;;1.27;0.32;;;;;;;5.44;54.41;99154.94;5016310;28;20065;-56
2021/12/20 10:53:19;;;;;;;0.57;0.20;;;;;;;4.71;57.07;99153.47;5016570;28;20053;-58
2021/12/20 10:56:06;;;;;;;1.58;0.52;;;;;;;4.29;58.05;99152.41;5015855;28;20130;-56
2021/12/20 10:58:54;;;;;;;1.85;0.40;;;;;;;3.45;58.97;99158.69;5015467;28;20049;-57
2021/12/20 11:04:45;;;;;;;0.70;0.30;;;;;;;3.02;61.76;99172.13;5016780;28;20057;-58
2021/12/20 11:10:17;;;;;;;3.20;0.47;;;;;;;3.07;62.93;99167.66;5015615;28;20052;-56
2021/12/20 11:13:15;;;;;;;1.65;0.20;;;;;;;2.62;63.40;99173.31;5015342;28;20068;-57
2021/12/20 11:16:27;;;;;;;0.88;0.20;;;;;;;2.48;64.01;99171.16;5015563;28;20053;-58
2021/12/20 11:19:29;;;;;;;2.72;0.57;;;;;;;2.39;64.80;99177.41;5015312;28;20049;-56
2021/12/20 11:22:19;;;;;;;;;;;;;;;2.32;65.87;99171.56;5014838;28;20075;-58
2021/12/20 11:25:11;;;;;;;0.77;0.38;;;;;;;2.24;65.64;99178.72;5020028;28;19921;-57
2021/12/20 11:27:57;;;;;;;;;;;;;;;1.81;67.11;99169.47;5015564;28;20069;-59
2021/12/20 11:30:42;;;;;;;2.00;0.40;;;;;;;1.93;66.76;99168.28;5015200;28;19917;-56
2021/12/20 11:33:29;;;;;;;0.95;0.43;;;;;;;1.79;66.99;99147.13;5015330;28;20057;-57
2021/12/20 11:36:15;;;;;;;3.55;0.32;;;;;;;1.74;66.84;99170.50;5028129;28;20056;-57
2021/12/20 11:39:01;;;;;;;1.38;0.50;;;;;;;1.58;67.22;99180.41;5015082;28;20064;-58
2021/12/20 11:41:47;;;;;;;2.47;0.40;;;;;;;1.72;67.12;99177.44;5014640;28;20064;-57
2021/12/20 11:44:36;;;;;;;1.77;0.50;;;;;;;1.45;67.96;99175.50;5005964;28;20061;-55
2021/12/20 11:47:38;;;;;;;0.90;0.55;;;;;;;1.56;67.67;99152.03;5014449;28;20049;-55
2021/12/20 11:50:31;;;;;;;1.92;0.50;;;;;;;1.70;68.23;99168.88;5015054;28;20535;-55
2021/12/20 11:53:19;;;;;;;1.92;0.60;;;;;;;1.52;68.58;99150.38;5015076;28;20060;-56
2021/12/20 11:56:05;;;;;;;2.60;0.40;;;;;;;1.38;68.91;99145.56;5014528;28;20052;-57
2021/12/20 11:58:51;;;;;;;4.70;1.58;;;;;;;2.00;76.47;99170.72;5014600;28;20053;-55
2021/12/20 12:01:37;;;;;;;1.25;0.40;;;;;;;2.00;67.65;99158.66;5014435;28;20415;-51
2021/12/20 12:04:23;;;;;;;4.85;0.60;;;;;;;1.82;68.56;99167.72;5021371;28;20064;-60
2021/12/20 12:07:28;;;;;;;2.30;0.65;;;;;;;1.73;69.03;99155.88;5027154;28;20508;-60
2021/12/20 12:10:18;;;;;;;1.75;0.55;;;;;;;1.65;67.89;99158.66;5018462;28;20060;-59
2021/12/20 12:13:15;;;;;;;1.60;0.50;;;;;;;1.72;67.84;99169.69;5012655;28;20061;-59
2021/12/20 12:16:15;;;;;;;1.50;0.40;;;;;;;1.34;68.00;99152.53;5017820;28;20515;-60
2021/12/20 12:19:02;;;;;;;1.63;0.50;;;;;;;1.37;68.26;99161.09;5032699;28;20057;-60
2021/12/20 12:21:48;;;;;;;1.20;0.50;;;;;;;1.27;68.55;99158.75;5014121;28;20057;-60
2021/12/20 12:24:56;;;;;;;1.05;0.50;;;;;;;1.30;68.93;99143.19;5031696;28;20064;-61
2021/12/20 12:27:44;;;;;;;0.60;0.38;;;;;;;1.17;68.50;99165.88;5038840;28;20064;-60
2021/12/20 12:30:32;;;;;;;1.65;0.55;;;;;;;1.15;68.69;99154.72;5027729;28;20068;-60
2021/12/20 12:33:18;;;;;;;2.13;0.68;;;;;;;1.05;69.21;99173.88;5030705;28;20052;-60
2021/12/20 12:36:30;;;;;;;2.47;0.65;;;;;;;1.89;69.55;99161.53;5038723;28;20059;-60
2021/12/20 12:39:26;;;;;;;6.05;0.90;;;;;;;1.23;69.55;99151.94;5018011;28;20052;-60
2021/12/20 12:42:12;;;;;;;2.95;0.85;;;;;;;1.15;69.53;99162.47;5018473;28;20425;-59
2021/12/20 12:44:57;;;;;;;2.38;0.80;;;;;;;1.05;69.33;99150.66;5019201;28;20048;-60
2021/12/20 12:47:44;;;;;;;2.50;0.85;;;;;;;1.26;76.54;99159.63;5007967;28;20048;-61
2021/12/20 12:50:31;;;;;;;1.75;0.88;;;;;;;1.10;68.96;99152.25;5020843;28;20068;-61
2021/12/20 12:53:43;;;;;;;2.45;0.85;;;;;;;1.04;69.56;99154.13;5020122;28;20373;-60
2021/12/20 12:56:31;;;;;;;4.72;0.60;;;;;;;0.95;69.97;99165.50;5030718;28;20052;-63
2021/12/20 12:59:17;;;;;;;1.70;0.77;;;;;;;1.00;69.31;99168.81;5031813;28;20519;-60
2021/12/20 13:02:12;;;;;;;3.08;0.70;;;;;;;0.97;69.34;99158.56;5031688;28;20072;-60
2021/12/20 13:05:07;;;;;;;2.58;0.70;;;;;;;0.91;69.46;99151.84;5032530;28;20052;-61
2021/12/20 13:07:59;;;;;;;2.30;0.95;;;;;;;0.86;70.14;99169.13;5033093;28;20495;-60
2021/12/20 13:10:51;;;;;;;2.35;0.75;;;;;;;0.82;70.53;99165.78;5052199;28;20080;-60
2021/12/20 13:13:42;;;;;;;1.08;0.47;;;;;;;0.81;70.44;99178.72;5025830;28;20056;-60
2021/12/20 13:16:30;;;;;;;2.03;0.70;;;;;;;0.76;70.89;99172.78;5013500;28;20053;-60
2021/12/20 13:19:29;;;;;;;0.47;0.35;;;;;;;0.73;71.01;99163.41;5029775;28;20098;-61
2021/12/20 13:22:16;;;;;;;2.53;0.98;;;;;;;0.69;70.63;99178.09;5032850;28;20057;-60
2021/12/20 13:25:01;;;;;;;1.88;0.63;;;;;;;0.78;71.19;99186.50;5032906;28;20052;-60
2021/12/20 13:27:55;;;;;;;1.45;0.60;;;;;;;0.78;71.27;99178.78;5046332;28;20400;-62
2021/12/20 13:30:53;;;;;;;2.35;0.90;;;;;;;0.87;70.83;99186.31;5033127;28;20040;-61
2021/12/20 13:33:47;;;;;;;3.35;0.90;;;;;;;0.84;70.99;99194.97;5038010;28;20056;-61
2021/12/20 13:36:35;;;;;;;2.88;1.23;;;;;;;0.90;73.86;99172.50;5032975;28;20052;-59